createdAt,value
2019-05-23T00:00:49.300Z,82.53
2019-05-23T00:03:41.833Z,82.27
2019-05-23T00:06:27.902Z,82.99
2019-05-23T00:09:14.672Z,82.42
2019-05-23T00:11:46.947Z,81.65
2019-05-23T00:14:24.855Z,80.91
2019-05-23T00:16:54.988Z,81.58
2019-05-23T00:19:23.364Z,81.48
2019-05-23T00:21:52.615Z,81.63
2019-05-23T00:24:21.710Z,81.54
2019-05-23T00:26:50.482Z,81.48
2019-05-23T00:29:18.330Z,81.64
2019-05-23T00:31:51.948Z,81.61
2019-05-23T00:34:20.788Z,81.86
2019-05-23T00:36:48.919Z,82.12
2019-05-23T00:39:16.684Z,82.23
2019-05-23T00:41:45.219Z,82.75
2019-05-23T00:44:13.207Z,82.80
2019-05-23T00:46:43.312Z,82.49
2019-05-23T00:49:15.486Z,82.06
2019-05-23T00:51:44.895Z,81.22
2019-05-23T00:54:14.017Z,80.83
2019-05-23T00:56:42.226Z,81.30
2019-05-23T00:59:24.422Z,81.40
2019-05-23T01:01:40.880Z,81.02
2019-05-23T01:04:10.600Z,81.25
2019-05-23T01:06:38.616Z,82.12
2019-05-23T01:09:07.447Z,82.33
2019-05-23T01:11:37.430Z,82.77
2019-05-23T01:14:05.759Z,82.96
2019-05-23T01:16:33.564Z,82.80
2019-05-23T01:19:02.134Z,82.76
2019-05-23T01:21:47.694Z,83.10
2019-05-23T01:24:37.852Z,82.40
2019-05-23T01:27:06.677Z,81.69
2019-05-23T01:29:41.494Z,82.30
2019-05-23T01:32:17.681Z,82.23
2019-05-23T01:34:45.578Z,82.08
2019-05-23T01:37:13.389Z,82.82
2019-05-23T01:39:41.075Z,82.51
2019-05-23T01:42:08.753Z,83.19
2019-05-23T01:44:36.711Z,83.31
2019-05-23T01:47:05.517Z,82.59
2019-05-23T01:49:33.584Z,83.00
2019-05-23T01:52:01.256Z,83.07
2019-05-23T01:54:29.136Z,82.75
2019-05-23T01:56:57.551Z,82.78
2019-05-23T01:59:25.511Z,82.38
2019-05-23T02:01:53.349Z,82.11
2019-05-23T02:04:21.152Z,81.93
2019-05-23T02:06:50.197Z,82.14
2019-05-23T02:09:18.441Z,82.59
2019-05-23T02:11:46.006Z,82.42
2019-05-23T02:14:14.154Z,81.60
2019-05-23T02:16:42.458Z,81.30
2019-05-23T02:19:13.662Z,81.92
2019-05-23T02:21:40.406Z,81.50
2019-05-23T02:24:08.838Z,82.11
2019-05-23T02:26:37.824Z,82.22
2019-05-23T02:29:06.409Z,82.31
2019-05-23T02:31:34.230Z,82.12
2019-05-23T02:34:02.155Z,82.11
2019-05-23T02:36:32.317Z,82.68
2019-05-23T02:39:28.735Z,82.64
2019-05-23T02:42:03.021Z,82.61
2019-05-23T02:44:32.611Z,82.88
2019-05-23T02:47:25.981Z,82.26
2019-05-23T02:49:55.729Z,82.49
2019-05-23T02:52:36.517Z,82.61
2019-05-23T02:55:09.192Z,82.83
2019-05-23T02:57:37.594Z,83.20
2019-05-23T03:00:54.989Z,82.72
2019-05-23T03:03:25.240Z,83.42
2019-05-23T03:05:54.925Z,83.61
2019-05-23T03:08:24.044Z,83.78
2019-05-23T03:10:57.261Z,83.33
2019-05-23T03:13:29.500Z,83.70
2019-05-23T03:15:57.911Z,84.39
2019-05-23T03:18:28.286Z,84.05
2019-05-23T03:20:57.671Z,84.05
2019-05-23T03:23:27.217Z,84.22
2019-05-23T03:26:35.770Z,84.33
2019-05-23T03:29:04.311Z,84.27
2019-05-23T03:31:39.787Z,84.74
2019-05-23T03:34:09.808Z,85.15
2019-05-23T03:36:37.889Z,85.25
2019-05-23T03:39:07.323Z,85.17
2019-05-23T03:41:35.833Z,84.91
2019-05-23T03:44:04.285Z,85.33
2019-05-23T03:46:33.900Z,85.55
2019-05-23T03:49:01.930Z,85.82
2019-05-23T03:51:30.641Z,85.92
2019-05-23T03:54:00.825Z,86.06
2019-05-23T03:56:29.471Z,86.00
2019-05-23T03:58:58.230Z,85.80
2019-05-23T04:01:46.270Z,85.46
2019-05-23T04:04:00.133Z,86.13
2019-05-23T04:06:28.700Z,86.49
2019-05-23T04:08:56.952Z,86.33
2019-05-23T04:11:24.966Z,85.74
2019-05-23T04:13:52.714Z,86.05
2019-05-23T04:16:22.192Z,86.32
2019-05-23T04:18:49.909Z,85.30
2019-05-23T04:21:22.558Z,85.85
2019-05-23T04:23:51.296Z,86.45
2019-05-23T04:26:19.620Z,86.17
2019-05-23T04:28:47.263Z,85.70
2019-05-23T04:31:15.055Z,86.30
2019-05-23T04:33:44.079Z,86.16
2019-05-23T04:36:12.260Z,85.99
2019-05-23T04:38:40.069Z,86.08
2019-05-23T04:41:07.656Z,86.29
2019-05-23T04:43:35.322Z,86.69
2019-05-23T04:46:05.033Z,86.66
2019-05-23T04:48:32.807Z,85.85
2019-05-23T04:51:02.390Z,86.01
2019-05-23T04:53:30.896Z,85.81
2019-05-23T04:55:58.671Z,86.66
2019-05-23T04:58:26.341Z,85.50
2019-05-23T05:00:55.491Z,85.68
2019-05-23T05:03:23.895Z,86.15
2019-05-23T05:05:53.055Z,85.88
2019-05-23T05:08:20.957Z,85.03
2019-05-23T05:10:49.072Z,84.55
2019-05-23T05:13:16.853Z,84.10
2019-05-23T05:15:44.688Z,83.62
2019-05-23T05:18:12.424Z,83.30
2019-05-23T05:20:40.185Z,83.26
2019-05-23T05:23:08.048Z,82.69
2019-05-23T05:25:36.452Z,82.33
2019-05-23T05:28:04.643Z,83.08
2019-05-23T05:30:32.492Z,82.55
2019-05-23T05:33:00.760Z,82.79
2019-05-23T05:35:29.631Z,83.13
2019-05-23T05:37:57.727Z,83.99
2019-05-23T05:40:26.342Z,76.25
2019-05-23T05:42:55.359Z,73.03
2019-05-23T05:45:24.800Z,71.01
2019-05-23T05:47:52.976Z,69.37
2019-05-23T05:50:21.823Z,68.69
2019-05-23T05:52:49.715Z,70.54
2019-05-23T05:55:17.564Z,70.55
2019-05-23T05:57:45.334Z,69.81
2019-05-23T06:00:33.066Z,68.07
2019-05-23T06:03:05.355Z,66.74
2019-05-23T06:05:41.570Z,65.21
2019-05-23T06:08:09.929Z,63.63
2019-05-23T06:10:38.656Z,62.13
2019-05-23T06:13:06.476Z,64.41
2019-05-23T06:15:34.563Z,68.37
2019-05-23T06:18:03.152Z,68.25
2019-05-23T06:20:31.668Z,67.44
2019-05-23T06:23:00.225Z,66.05
2019-05-23T06:25:28.115Z,67.04
2019-05-23T06:27:59.085Z,66.96
2019-05-23T06:30:32.636Z,68.09
2019-05-23T06:32:58.813Z,67.67
2019-05-23T06:35:26.855Z,68.19
2019-05-23T06:37:54.501Z,69.71
2019-05-23T06:40:22.750Z,67.87
2019-05-23T06:42:51.195Z,67.42
2019-05-23T06:45:20.169Z,68.02
2019-05-23T06:47:47.823Z,68.45
2019-05-23T06:50:18.766Z,69.94
2019-05-23T06:52:46.787Z,66.94
2019-05-23T06:55:14.794Z,68.06
2019-05-23T06:57:42.788Z,68.55
2019-05-23T07:00:14.380Z,70.41
2019-05-23T07:02:43.343Z,73.67
2019-05-23T07:05:11.714Z,74.14
2019-05-23T07:07:41.143Z,74.12
2019-05-23T07:10:09.364Z,73.74
2019-05-23T07:12:37.612Z,75.32
2019-05-23T07:15:05.977Z,74.82
2019-05-23T07:17:34.319Z,73.92
2019-05-23T07:20:02.153Z,76.54
2019-05-23T07:22:30.315Z,76.94
2019-05-23T07:24:59.030Z,75.17
2019-05-23T07:27:28.990Z,74.04
2019-05-23T07:29:56.811Z,74.27
2019-05-23T07:32:24.635Z,72.80
2019-05-23T07:34:52.388Z,73.21
2019-05-23T07:37:20.511Z,72.53
2019-05-23T07:39:48.246Z,73.41
2019-05-23T07:42:16.553Z,71.23
2019-05-23T07:44:48.541Z,69.47
2019-05-23T07:47:16.015Z,70.19
2019-05-23T07:49:44.389Z,68.85
2019-05-23T07:52:12.132Z,68.68
2019-05-23T07:54:50.233Z,67.69
2019-05-23T07:57:19.006Z,67.74
2019-05-23T07:59:46.856Z,65.90
2019-05-23T08:02:25.445Z,66.25
2019-05-23T08:04:52.661Z,67.49
2019-05-23T08:07:23.098Z,65.12
2019-05-23T08:09:51.444Z,62.73
2019-05-23T08:12:21.196Z,61.48
2019-05-23T08:14:49.219Z,57.98
2019-05-23T08:17:17.467Z,57.29
2019-05-23T08:19:49.706Z,57.89
2019-05-23T08:22:15.472Z,53.83
2019-05-23T08:24:43.621Z,51.85
2019-05-23T08:27:12.617Z,50.58
2019-05-23T08:29:40.890Z,50.58
2019-05-23T08:32:09.292Z,48.63
2019-05-23T08:34:42.158Z,47.57
2019-05-23T08:37:08.510Z,47.22
2019-05-23T08:39:37.598Z,43.16
2019-05-23T08:42:07.936Z,44.85
2019-05-23T08:44:36.037Z,44.60
2019-05-23T08:47:06.481Z,45.66
2019-05-23T08:49:34.619Z,45.68
2019-05-23T08:52:02.881Z,41.71
2019-05-23T08:54:32.605Z,44.03
2019-05-23T08:57:01.108Z,41.59
2019-05-23T08:59:29.590Z,42.82
2019-05-23T09:01:57.654Z,44.15
2019-05-23T09:04:26.967Z,45.11
2019-05-23T09:06:55.403Z,44.87
2019-05-23T09:09:29.804Z,44.87
2019-05-23T09:11:53.769Z,45.33
2019-05-23T09:14:21.521Z,45.96
2019-05-23T09:16:49.419Z,44.99
2019-05-23T09:19:17.331Z,45.55
2019-05-23T09:21:44.987Z,44.86
2019-05-23T09:24:13.206Z,45.90
2019-05-23T09:26:41.344Z,45.87
2019-05-23T09:29:09.819Z,45.87
2019-05-23T09:31:39.175Z,44.12
2019-05-23T09:34:07.669Z,44.91
2019-05-23T09:36:36.006Z,44.50
2019-05-23T09:39:07.491Z,45.22
2019-05-23T09:41:35.705Z,43.40
2019-05-23T09:44:04.656Z,44.57
2019-05-23T09:46:32.792Z,45.68
2019-05-23T09:49:00.745Z,45.10
2019-05-23T09:51:28.531Z,43.33
2019-05-23T09:53:58.154Z,42.26
2019-05-23T09:56:26.626Z,42.37
2019-05-23T09:58:54.991Z,42.75
2019-05-23T10:01:23.818Z,41.89
2019-05-23T10:03:52.157Z,41.74
2019-05-23T10:06:20.208Z,41.66
2019-05-23T10:08:48.376Z,40.57
2019-05-23T10:11:16.801Z,41.56
2019-05-23T10:13:44.805Z,42.06
2019-05-23T10:16:13.046Z,42.06
2019-05-23T10:18:42.383Z,41.34
2019-05-23T10:21:10.569Z,38.98
2019-05-23T10:23:38.721Z,39.87
2019-05-23T10:26:07.769Z,39.30
2019-05-23T10:28:35.918Z,40.84
2019-05-23T10:31:06.390Z,38.03
2019-05-23T10:33:34.364Z,37.53
2019-05-23T10:36:02.031Z,34.96
2019-05-23T10:38:29.821Z,33.75
2019-05-23T10:40:57.960Z,37.37
2019-05-23T10:43:25.898Z,35.15
2019-05-23T10:45:54.132Z,36.06
2019-05-23T10:48:22.837Z,34.42
2019-05-23T10:50:50.688Z,33.65
2019-05-23T10:53:18.909Z,35.61
2019-05-23T10:55:46.885Z,35.61
2019-05-23T10:58:15.598Z,35.06
2019-05-23T11:00:44.250Z,35.32
2019-05-23T11:03:12.445Z,35.59
2019-05-23T11:05:40.715Z,33.45
2019-05-23T11:08:09.937Z,33.93
2019-05-23T11:10:38.123Z,34.04
2019-05-23T11:13:06.394Z,34.69
2019-05-23T11:15:34.683Z,33.33
2019-05-23T11:18:04.047Z,33.88
2019-05-23T11:20:35.434Z,33.60
2019-05-23T11:23:03.752Z,35.18
2019-05-23T11:25:32.385Z,36.68
2019-05-23T11:28:00.460Z,36.29
2019-05-23T11:30:37.763Z,34.38
2019-05-23T11:33:06.638Z,33.55
2019-05-23T11:35:34.851Z,34.72
2019-05-23T11:38:03.485Z,34.89
2019-05-23T11:40:33.780Z,35.82
2019-05-23T11:43:01.924Z,33.98
2019-05-23T11:45:32.773Z,34.46
2019-05-23T11:48:01.090Z,34.92
2019-05-23T11:50:29.957Z,33.83
2019-05-23T11:52:58.033Z,34.92
2019-05-23T11:55:26.033Z,34.59
2019-05-23T11:57:54.223Z,33.66
2019-05-23T12:00:48.196Z,33.75
2019-05-23T12:03:16.124Z,34.24
2019-05-23T12:05:44.238Z,33.69
2019-05-23T12:08:12.473Z,33.67
2019-05-23T12:10:40.189Z,29.77
2019-05-23T12:13:08.347Z,31.88
2019-05-23T12:15:38.275Z,31.14
2019-05-23T12:18:07.445Z,31.43
2019-05-23T12:20:35.551Z,31.58
2019-05-23T12:23:10.753Z,33.54
2019-05-23T12:25:35.627Z,31.52
2019-05-23T12:28:06.059Z,33.62
2019-05-23T12:30:35.418Z,34.27
2019-05-23T12:33:03.518Z,33.78
2019-05-23T12:35:31.489Z,33.35
2019-05-23T12:38:02.455Z,33.59
2019-05-23T12:40:29.180Z,32.62
2019-05-23T12:42:57.274Z,33.37
2019-05-23T12:45:25.001Z,34.87
2019-05-23T12:47:58.017Z,35.99
2019-05-23T12:50:30.315Z,33.73
2019-05-23T12:52:58.189Z,33.96
2019-05-23T12:55:26.006Z,33.24
2019-05-23T12:57:53.713Z,34.01
2019-05-23T13:00:47.262Z,33.49
2019-05-23T13:03:16.617Z,32.99
2019-05-23T13:05:44.568Z,34.71
2019-05-23T13:08:12.438Z,33.71
2019-05-23T13:10:40.243Z,33.05
2019-05-23T13:13:08.181Z,35.00
2019-05-23T13:15:36.529Z,32.70
2019-05-23T13:18:04.740Z,33.96
2019-05-23T13:20:33.372Z,35.27
2019-05-23T13:23:01.254Z,35.54
2019-05-23T13:25:29.561Z,35.29
2019-05-23T13:27:58.974Z,36.61
2019-05-23T13:30:26.987Z,35.33
2019-05-23T13:32:54.805Z,34.89
2019-05-23T13:35:23.134Z,35.17
2019-05-23T13:37:53.952Z,35.86
2019-05-23T13:40:21.309Z,35.76
2019-05-23T13:42:49.110Z,35.92
2019-05-23T13:45:16.791Z,37.08
2019-05-23T13:47:44.596Z,36.55
2019-05-23T13:50:14.136Z,37.06
2019-05-23T13:52:42.365Z,36.98
2019-05-23T13:55:10.138Z,35.42
2019-05-23T13:57:37.916Z,35.21
2019-05-23T14:00:06.376Z,35.05
2019-05-23T14:02:34.142Z,35.05
2019-05-23T14:05:03.072Z,34.80
2019-05-23T14:07:31.477Z,37.07
2019-05-23T14:09:59.466Z,36.19
2019-05-23T14:12:29.455Z,36.70
2019-05-23T14:14:57.067Z,37.61
2019-05-23T14:17:40.337Z,36.46
2019-05-23T14:20:08.231Z,36.48
2019-05-23T14:22:39.884Z,37.08
2019-05-23T14:25:07.844Z,38.57
2019-05-23T14:27:59.583Z,36.45
2019-05-23T14:31:01.585Z,36.71
2019-05-23T14:33:47.735Z,36.69
2019-05-23T14:36:24.945Z,37.38
2019-05-23T14:38:54.753Z,37.85
2019-05-23T14:41:22.471Z,38.06
2019-05-23T14:43:51.352Z,38.23
2019-05-23T14:46:19.077Z,37.59
2019-05-23T14:48:57.793Z,38.31
2019-05-23T14:51:43.515Z,38.56
2019-05-23T14:54:17.124Z,38.38
2019-05-23T14:56:45.255Z,39.23
2019-05-23T14:59:13.326Z,39.30
2019-05-23T15:01:40.959Z,39.21
2019-05-23T15:04:08.990Z,39.16
2019-05-23T15:06:36.865Z,38.79
2019-05-23T15:09:06.382Z,39.23
2019-05-23T15:11:34.221Z,39.54
2019-05-23T15:14:02.070Z,39.60
2019-05-23T15:16:29.706Z,38.06
2019-05-23T15:18:57.447Z,37.58
2019-05-23T15:21:25.256Z,39.74
2019-05-23T15:23:53.014Z,36.59
2019-05-23T15:26:23.453Z,37.33
2019-05-23T15:28:50.557Z,38.01
2019-05-23T15:31:19.124Z,37.85
2019-05-23T15:33:47.017Z,37.80
2019-05-23T15:36:14.839Z,38.53
2019-05-23T15:38:42.765Z,38.53
2019-05-23T15:41:10.705Z,37.76
2019-05-23T15:43:40.300Z,38.61
2019-05-23T15:46:08.275Z,38.95
2019-05-23T15:48:36.157Z,38.63
2019-05-23T15:51:04.622Z,38.69
2019-05-23T15:53:43.516Z,38.87
2019-05-23T15:56:28.454Z,38.70
2019-05-23T15:59:07.050Z,38.99
2019-05-23T16:01:42.031Z,39.77
2019-05-23T16:04:11.509Z,40.18
2019-05-23T16:06:39.471Z,40.66
2019-05-23T16:09:27.814Z,40.73
2019-05-23T16:11:40.529Z,41.07
2019-05-23T16:14:08.318Z,41.80
2019-05-23T16:16:36.205Z,42.33
2019-05-23T16:19:04.291Z,41.35
2019-05-23T16:21:32.589Z,43.38
2019-05-23T16:24:01.043Z,43.64
2019-05-23T16:26:29.080Z,43.01
2019-05-23T16:28:57.035Z,44.61
2019-05-23T16:31:24.868Z,43.95
2019-05-23T16:33:52.767Z,43.78
2019-05-23T16:36:20.588Z,44.24
2019-05-23T16:38:49.353Z,44.50
2019-05-23T16:41:17.267Z,43.80
2019-05-23T16:43:46.015Z,44.28
2019-05-23T16:46:14.226Z,44.92
2019-05-23T16:48:43.843Z,45.61
2019-05-23T16:51:11.787Z,45.24
2019-05-23T16:53:39.811Z,44.40
2019-05-23T16:56:21.551Z,44.90
2019-05-23T16:59:03.162Z,45.88
2019-05-23T17:01:57.798Z,46.45
2019-05-23T17:04:29.139Z,47.49
2019-05-23T17:07:06.413Z,47.16
2019-05-23T17:10:08.480Z,47.26
2019-05-23T17:12:41.972Z,47.42
2019-05-23T17:15:38.295Z,47.68
2019-05-23T17:18:25.618Z,48.33
2019-05-23T17:21:02.193Z,48.85
2019-05-23T17:23:48.231Z,48.12
2019-05-23T17:26:47.065Z,48.36
2019-05-23T17:29:36.298Z,49.23
2019-05-23T17:32:06.923Z,48.55
2019-05-23T17:34:35.071Z,48.05
2019-05-23T17:37:04.960Z,48.25
2019-05-23T17:39:33.575Z,49.67
2019-05-23T17:42:01.310Z,49.61
2019-05-23T17:44:29.124Z,49.63
2019-05-23T17:46:56.820Z,49.61
2019-05-23T17:49:24.558Z,50.11
2019-05-23T17:51:52.221Z,50.04
2019-05-23T17:54:20.144Z,49.77
2019-05-23T17:56:47.981Z,49.77
2019-05-23T17:59:15.642Z,50.46
2019-05-23T18:01:44.163Z,49.40
2019-05-23T18:04:12.520Z,49.01
2019-05-23T18:06:40.286Z,50.35
2019-05-23T18:09:09.053Z,50.37
2019-05-23T18:11:36.888Z,51.21
2019-05-23T18:14:05.324Z,52.54
2019-05-23T18:16:33.150Z,52.74
2019-05-23T18:19:01.774Z,53.26
2019-05-23T18:21:31.146Z,53.26
2019-05-23T18:24:00.301Z,52.27
2019-05-23T18:26:28.216Z,53.00
2019-05-23T18:28:56.118Z,54.58
2019-05-23T18:31:27.065Z,53.90
2019-05-23T18:33:55.159Z,52.91
2019-05-23T18:36:24.624Z,53.46
2019-05-23T18:38:52.477Z,52.33
2019-05-23T18:41:20.418Z,52.82
2019-05-23T18:43:49.671Z,53.49
2019-05-23T18:46:26.734Z,54.41
2019-05-23T18:48:54.827Z,55.71
2019-05-23T18:51:22.757Z,53.92
2019-05-23T18:53:50.660Z,55.86
2019-05-23T18:56:18.603Z,54.91
2019-05-23T18:58:46.558Z,56.06
2019-05-23T19:01:19.248Z,57.35
2019-05-23T19:03:47.032Z,58.88
2019-05-23T19:06:15.169Z,59.97
2019-05-23T19:08:43.031Z,60.52
2019-05-23T19:11:20.121Z,60.49
2019-05-23T19:13:40.609Z,60.01
2019-05-23T19:16:08.382Z,60.19
2019-05-23T19:18:36.933Z,61.08
2019-05-23T19:21:05.876Z,61.21
2019-05-23T19:23:34.356Z,61.46
2019-05-23T19:26:02.323Z,60.54
2019-05-23T19:28:30.333Z,59.87
2019-05-23T19:30:58.339Z,60.68
2019-05-23T19:33:26.836Z,61.19
2019-05-23T19:35:55.217Z,61.36
2019-05-23T19:38:23.264Z,61.83
2019-05-23T19:40:51.038Z,60.97
2019-05-23T19:43:18.865Z,61.85
2019-05-23T19:45:47.612Z,60.92
2019-05-23T19:48:16.972Z,60.22
2019-05-23T19:50:45.480Z,61.75
2019-05-23T19:53:14.869Z,63.44
2019-05-23T19:55:43.813Z,64.96
2019-05-23T19:58:11.914Z,63.27
2019-05-23T20:00:40.726Z,62.31
2019-05-23T20:03:09.185Z,63.10
2019-05-23T20:05:38.509Z,61.23
2019-05-23T20:08:06.834Z,61.22
2019-05-23T20:10:36.928Z,61.12
2019-05-23T20:13:05.834Z,61.06
2019-05-23T20:15:33.815Z,62.77
2019-05-23T20:18:01.895Z,62.46
2019-05-23T20:20:30.836Z,62.71
2019-05-23T20:22:58.375Z,63.08
2019-05-23T20:25:26.244Z,63.40
2019-05-23T20:27:53.855Z,64.32
2019-05-23T20:30:53.549Z,65.46
2019-05-23T20:33:21.233Z,65.17
2019-05-23T20:35:48.991Z,65.54
2019-05-23T20:38:16.727Z,65.18
2019-05-23T20:40:44.462Z,66.61
2019-05-23T20:43:13.249Z,65.85
2019-05-23T20:45:41.048Z,65.18
2019-05-23T20:48:08.874Z,65.11
2019-05-23T20:50:36.667Z,65.48
2019-05-23T20:53:04.994Z,65.43
2019-05-23T20:55:33.318Z,65.47
2019-05-23T20:58:01.101Z,66.02
2019-05-23T21:00:41.656Z,65.62
2019-05-23T21:03:09.424Z,66.07
2019-05-23T21:05:37.448Z,66.18
2019-05-23T21:08:05.302Z,65.62
2019-05-23T21:10:47.753Z,67.26
2019-05-23T21:13:16.132Z,67.44
2019-05-23T21:15:45.064Z,67.74
2019-05-23T21:18:12.941Z,68.00
2019-05-23T21:20:41.051Z,68.06
2019-05-23T21:23:08.758Z,69.00
2019-05-23T21:25:38.172Z,66.34
2019-05-23T21:28:05.955Z,65.47
2019-05-23T21:30:33.634Z,66.16
2019-05-23T21:33:01.394Z,66.37
2019-05-23T21:35:28.990Z,68.37
2019-05-23T21:37:56.635Z,69.64
2019-05-23T21:40:40.754Z,68.79
2019-05-23T21:43:08.467Z,68.70
2019-05-23T21:45:36.328Z,69.32
2019-05-23T21:48:04.431Z,70.09
2019-05-23T21:50:32.384Z,69.91
2019-05-23T21:53:00.013Z,70.53
2019-05-23T21:55:34.827Z,70.47
2019-05-23T21:58:02.422Z,69.96
2019-05-23T22:01:16.677Z,70.48
2019-05-23T22:03:46.569Z,71.01
2019-05-23T22:06:16.314Z,71.23
2019-05-23T22:08:44.414Z,71.23
2019-05-23T22:11:12.167Z,71.20
2019-05-23T22:13:39.724Z,71.39
2019-05-23T22:16:07.774Z,71.63
2019-05-23T22:18:35.498Z,71.78
2019-05-23T22:21:03.089Z,71.88
2019-05-23T22:23:34.467Z,72.27
2019-05-23T22:26:00.757Z,72.65
2019-05-23T22:28:28.416Z,72.74
2019-05-23T22:30:56.158Z,72.51
2019-05-23T22:33:26.454Z,73.04
2019-05-23T22:35:54.239Z,73.13
2019-05-23T22:38:22.010Z,73.66
2019-05-23T22:40:50.736Z,73.48
2019-05-23T22:43:21.283Z,73.76
2019-05-23T22:45:48.624Z,73.71
2019-05-23T22:48:16.322Z,74.33
2019-05-23T22:50:44.084Z,74.34
2019-05-23T22:53:11.890Z,73.96
2019-05-23T22:55:39.609Z,73.89
2019-05-23T22:58:07.455Z,74.14
2019-05-23T23:00:37.140Z,73.88
2019-05-23T23:03:04.934Z,74.25
2019-05-23T23:05:32.541Z,74.68
2019-05-23T23:08:00.326Z,74.24
2019-05-23T23:10:28.011Z,74.97
2019-05-23T23:12:57.099Z,74.98
2019-05-23T23:15:26.798Z,74.51
2019-05-23T23:17:55.175Z,74.56
2019-05-23T23:20:22.786Z,75.03
2019-05-23T23:22:50.415Z,75.24
2019-05-23T23:25:18.168Z,75.20
2019-05-23T23:27:45.929Z,76.16
2019-05-23T23:30:15.884Z,76.51
2019-05-23T23:32:43.916Z,77.13
2019-05-23T23:35:11.733Z,77.33
2019-05-23T23:37:39.419Z,77.28
2019-05-23T23:40:08.252Z,77.54
2019-05-23T23:42:37.754Z,77.80
2019-05-23T23:45:24.691Z,77.84
2019-05-23T23:48:10.449Z,77.58
2019-05-23T23:50:55.943Z,77.74
2019-05-23T23:53:41.788Z,77.80
2019-05-23T23:56:27.651Z,78.16
2019-05-23T23:58:54.844Z,78.31
